Time;durP1;ratioP1;P1;durP2;ratioP2;P2;SDS_P1;SDS_P2;PMS_P1;PMS_P2;Temp;Humidity;BMP_temperature;BMP_pressure;BME280_temperature;BME280_humidity;BME280_pressure;Samples;Min_cycle;Max_cycle;Signal;HPM_P1;HPM_P2
2021/11/03 00:01:51;;;;;;;3.50;1.75;;;15.30;53.30;;;;;;6200765;28;20065;-70
2021/11/03 00:04:52;;;;;;;2.15;1.30;;;15.30;53.50;;;;;;6217143;28;20034;-70
2021/11/03 00:07:55;;;;;;;1.77;1.08;;;15.20;53.50;;;;;;6216904;28;20061;-71
2021/11/03 00:10:56;;;;;;;1.63;1.00;;;15.20;53.20;;;;;;6201168;28;20139;-71
2021/11/03 00:13:58;;;;;;;1.73;0.90;;;15.20;53.10;;;;;;6216954;28;20023;-69
2021/11/03 00:16:59;;;;;;;11.07;1.63;;;15.30;52.50;;;;;;6216876;28;20034;-70
2021/11/03 00:20:00;;;;;;;1.38;0.88;;;15.40;52.10;;;;;;6201040;28;20030;-70
2021/11/03 00:23:02;;;;;;;8.55;2.13;;;15.50;51.90;;;;;;6201356;28;20041;-69
2021/11/03 00:26:03;;;;;;;4.05;1.80;;;15.50;52.00;;;;;;6201326;28;20471;-70
2021/11/03 00:29:04;;;;;;;3.65;1.50;;;15.50;52.60;;;;;;6200570;28;20038;-69
2021/11/03 00:32:07;;;;;;;5.47;1.80;;;15.40;52.90;;;;;;6216545;28;20034;-70
2021/11/03 00:35:07;;;;;;;3.63;1.60;;;15.30;53.40;;;;;;6216732;28;20363;-69
2021/11/03 00:38:09;;;;;;;4.95;1.90;;;15.20;54.00;;;;;;6216680;28;20038;-69
2021/11/03 00:41:10;;;;;;;3.92;1.60;;;15.00;54.20;;;;;;6199888;28;20519;-69
2021/11/03 00:44:11;;;;;;;8.40;2.17;;;15.00;54.50;;;;;;6215769;28;20038;-70
2021/11/03 00:47:12;;;;;;;3.53;1.60;;;14.90;54.90;;;;;;6201153;28;20035;-70
2021/11/03 00:50:15;;;;;;;3.08;1.80;;;14.80;55.20;;;;;;6216149;28;20085;-70
2021/11/03 00:53:16;;;;;;;4.22;1.80;;;14.70;55.50;;;;;;6198972;28;20027;-70
2021/11/03 00:56:17;;;;;;;12.43;2.40;;;14.60;55.80;;;;;;6198146;28;20467;-70
2021/11/03 00:59:18;;;;;;;3.20;1.48;;;14.50;56.00;;;;;;6200230;28;20087;-70
2021/11/03 01:02:20;;;;;;;1.90;1.33;;;14.50;56.30;;;;;;6200258;28;20061;-70
2021/11/03 01:05:27;;;;;;;3.08;1.77;;;14.40;56.40;;;;;;6199890;28;20379;-69
2021/11/03 01:08:28;;;;;;;5.40;1.73;;;14.40;56.60;;;;;;6199594;28;20022;-71
2021/11/03 01:11:29;;;;;;;4.38;1.98;;;14.30;56.90;;;;;;6201224;28;20026;-70
2021/11/03 01:14:30;;;;;;;4.32;1.80;;;14.30;57.00;;;;;;6199838;28;20037;-70
2021/11/03 01:17:32;;;;;;;2.20;1.05;;;14.20;57.00;;;;;;6199906;28;20395;-70
2021/11/03 01:20:33;;;;;;;3.30;1.40;;;14.20;57.00;;;;;;6199080;28;20041;-70
2021/11/03 01:23:34;;;;;;;2.58;1.15;;;14.20;56.90;;;;;;6203447;28;20365;-71
2021/11/03 01:26:38;;;;;;;6.53;1.83;;;14.20;56.90;;;;;;6205316;28;20073;-71
2021/11/03 01:29:39;;;;;;;1.83;1.20;;;14.20;57.00;;;;;;6220472;28;20136;-70
2021/11/03 01:32:40;;;;;;;2.55;1.30;;;14.20;57.00;;;;;;6220501;28;20031;-70
2021/11/03 01:35:41;;;;;;;2.40;1.40;;;14.20;56.80;;;;;;6204229;28;20034;-70
2021/11/03 01:38:42;;;;;;;3.85;1.40;;;14.30;56.80;;;;;;6203864;28;20061;-71
2021/11/03 01:41:43;;;;;;;2.08;1.20;;;14.30;56.80;;;;;;6204410;28;20070;-71
2021/11/03 01:44:44;;;;;;;2.22;1.33;;;14.30;56.60;;;;;;6203630;28;20197;-70
2021/11/03 01:47:59;;;;;;;3.33;1.73;;;14.20;57.20;;;;;;6203814;28;20174;-71
2021/11/03 01:51:00;;;;;;;3.70;1.85;;;14.20;56.60;;;;;;6203260;28;20109;-70
2021/11/03 01:54:03;;;;;;;7.95;1.63;;;14.30;56.60;;;;;;6187409;28;20094;-70
2021/11/03 01:57:08;;;;;;;4.93;1.17;;;14.30;56.60;;;;;;6203609;28;20363;-70
2021/11/03 02:00:17;;;;;;;4.57;1.25;;;14.30;56.60;;;;;;6220563;28;20026;-70
2021/11/03 02:03:28;;;;;;;2.78;1.38;;;14.30;56.60;;;;;;6204755;28;20042;-70
2021/11/03 02:06:28;;;;;;;4.43;1.40;;;14.30;56.50;;;;;;6187136;28;20044;-70
2021/11/03 02:09:29;;;;;;;3.25;1.30;;;14.20;56.40;;;;;;6203285;28;20042;-70
2021/11/03 02:12:31;;;;;;;2.25;1.15;;;14.20;56.40;;;;;;6190113;28;20550;-70
2021/11/03 02:15:35;;;;;;;3.67;0.93;;;14.20;56.30;;;;;;6195089;28;20388;-69
2021/11/03 02:18:37;;;;;;;2.28;0.98;;;14.30;56.10;;;;;;6182786;28;20428;-69
2021/11/03 02:21:53;;;;;;;3.65;1.20;;;14.30;56.00;;;;;;6219296;28;20080;-69
2021/11/03 02:25:13;;;;;;;1.48;0.98;;;14.30;55.60;;;;;;6219361;28;20172;-69
2021/11/03 02:28:16;;;;;;;1.73;1.15;;;14.40;55.30;;;;;;6219245;28;20065;-69
2021/11/03 02:31:31;;;;;;;8.25;1.30;;;14.50;55.40;;;;;;6219083;28;20035;-69
2021/11/03 02:34:32;;;;;;;2.17;1.08;;;14.50;55.40;;;;;;6179384;28;20037;-69
2021/11/03 02:37:36;;;;;;;3.15;1.10;;;14.50;55.30;;;;;;6178767;28;20031;-69
2021/11/03 02:40:41;;;;;;;2.75;1.40;;;14.60;55.30;;;;;;6178326;28;20062;-69
2021/11/03 02:43:51;;;;;;;1.55;0.90;;;14.50;55.30;;;;;;6178352;28;20062;-69
2021/11/03 02:46:53;;;;;;;2.60;1.30;;;14.40;55.40;;;;;;6187843;28;20114;-70
2021/11/03 02:49:54;;;;;;;2.40;1.05;;;14.40;55.60;;;;;;6192387;28;20026;-69
2021/11/03 02:52:55;;;;;;;3.80;1.73;;;14.40;55.70;;;;;;6218746;28;20053;-69
2021/11/03 02:55:57;;;;;;;4.70;1.42;;;14.40;55.80;;;;;;6203199;28;20038;-69
2021/11/03 02:58:58;;;;;;;4.75;1.65;;;14.30;55.90;;;;;;6202486;28;20041;-69
2021/11/03 03:02:00;;;;;;;2.47;1.27;;;14.30;56.00;;;;;;6218473;28;20341;-69
2021/11/03 03:05:04;;;;;;;6.28;1.20;;;14.20;56.00;;;;;;6203045;28;20049;-69
2021/11/03 03:08:06;;;;;;;1.98;1.20;;;14.30;56.20;;;;;;6202980;28;20066;-70
2021/11/03 03:11:07;;;;;;;2.25;1.20;;;14.30;56.20;;;;;;6219130;28;20117;-70
2021/11/03 03:14:09;;;;;;;2.70;1.40;;;14.20;56.10;;;;;;6201887;28;20452;-70
2021/11/03 03:17:12;;;;;;;2.38;1.20;;;14.20;56.10;;;;;;6201723;28;20069;-70
2021/11/03 03:20:13;;;;;;;1.95;1.02;;;14.30;56.00;;;;;;6177296;28;20030;-69
2021/11/03 03:23:15;;;;;;;4.15;1.20;;;14.30;56.00;;;;;;6193669;28;20122;-70
2021/11/03 03:26:18;;;;;;;2.22;0.90;;;14.40;55.80;;;;;;6185029;28;20339;-70
2021/11/03 03:29:20;;;;;;;2.22;1.15;;;14.40;55.80;;;;;;6202456;28;20026;-70
2021/11/03 03:32:25;;;;;;;2.53;1.00;;;14.40;55.60;;;;;;6217685;28;20542;-70
2021/11/03 03:35:28;;;;;;;1.60;1.00;;;14.50;55.60;;;;;;6202752;28;20033;-70
2021/11/03 03:38:29;;;;;;;1.73;1.20;;;14.50;55.40;;;;;;6201102;28;20069;-70
2021/11/03 03:41:30;;;;;;;5.35;0.98;;;14.50;55.30;;;;;;6201230;28;20038;-70
2021/11/03 03:44:31;;;;;;;3.75;1.15;;;14.60;55.20;;;;;;6200589;28;20037;-71
2021/11/03 03:47:32;;;;;;;1.95;1.25;;;14.60;55.10;;;;;;6201054;28;20062;-70
2021/11/03 03:50:36;;;;;;;0.95;0.47;;;14.70;55.00;;;;;;6200731;28;20124;-70
2021/11/03 03:53:38;;;;;;;1.75;0.70;;;14.80;55.00;;;;;;6201841;28;20026;-70
2021/11/03 03:56:39;;;;;;;0.82;0.45;;;14.90;55.00;;;;;;6200885;28;20034;-70
2021/11/03 03:59:40;;;;;;;0.20;0.20;;;14.90;55.10;;;;;;6202065;28;20037;-70
2021/11/03 04:02:42;;;;;;;0.25;0.20;;;15.00;55.30;;;;;;6184677;28;20026;-70
2021/11/03 04:05:46;;;;;;;0.40;0.40;;;15.00;55.40;;;;;;6200818;28;20048;-70
2021/11/03 04:08:48;;;;;;;0.55;0.30;;;15.00;55.40;;;;;;6217115;28;20105;-70
2021/11/03 04:11:49;;;;;;;0.55;0.50;;;15.00;55.30;;;;;;6216989;28;20093;-70
2021/11/03 04:14:54;;;;;;;1.48;0.93;;;15.10;55.30;;;;;;6216978;28;20077;-69
2021/11/03 04:17:55;;;;;;;1.38;1.00;;;15.10;55.00;;;;;;6200644;28;20046;-71
2021/11/03 04:20:56;;;;;;;5.28;1.20;;;15.10;54.70;;;;;;6201080;28;20023;-69
2021/11/03 04:23:57;;;;;;;2.33;1.10;;;15.10;54.50;;;;;;6217236;28;20062;-69
2021/11/03 04:26:59;;;;;;;3.40;1.15;;;15.00;54.40;;;;;;6216825;28;20077;-70
2021/11/03 04:30:01;;;;;;;2.15;1.05;;;15.00;54.30;;;;;;6216729;28;20053;-70
2021/11/03 04:33:03;;;;;;;8.05;1.00;;;15.00;54.30;;;;;;6216674;28;20445;-70
2021/11/03 04:36:04;;;;;;;1.23;0.70;;;14.90;54.30;;;;;;6200366;28;20030;-70
2021/11/03 04:39:08;;;;;;;2.92;0.77;;;15.00;54.30;;;;;;6201382;28;20105;-70
2021/11/03 04:42:12;;;;;;;3.72;0.38;;;14.90;54.40;;;;;;6197768;28;20033;-70
2021/11/03 04:45:14;;;;;;;0.20;0.20;;;14.90;54.50;;;;;;6176134;28;20112;-70
2021/11/03 04:48:16;;;;;;;0.98;0.17;;;15.00;54.60;;;;;;6176327;28;20372;-70
2021/11/03 04:51:18;;;;;;;0.50;0.30;;;15.00;54.70;;;;;;6200152;28;20468;-70
2021/11/03 04:54:21;;;;;;;1.25;0.95;;;15.00;54.80;;;;;;6200238;28;20407;-70
2021/11/03 04:57:22;;;;;;;2.15;1.25;;;15.00;54.70;;;;;;6201983;28;20126;-70
2021/11/03 05:00:30;;;;;;;3.85;0.77;;;15.00;54.80;;;;;;6205235;28;20487;-70
2021/11/03 05:03:33;;;;;;;2.28;1.02;;;14.90;54.90;;;;;;6204920;28;20125;-70
2021/11/03 05:06:40;;;;;;;3.00;1.08;;;14.90;55.00;;;;;;6221224;28;20089;-70
2021/11/03 05:09:43;;;;;;;1.60;0.82;;;14.80;55.10;;;;;;6221072;28;20462;-70
2021/11/03 05:12:44;;;;;;;2.22;1.20;;;14.80;55.30;;;;;;6205617;28;20033;-70
2021/11/03 05:15:46;;;;;;;3.83;1.20;;;14.80;55.50;;;;;;6220674;28;20041;-70
2021/11/03 05:18:48;;;;;;;5.28;1.23;;;14.70;55.60;;;;;;6204050;28;20344;-70
2021/11/03 05:21:52;;;;;;;2.35;1.05;;;14.70;55.70;;;;;;6219156;28;20026;-70
2021/11/03 05:24:55;;;;;;;1.45;0.90;;;14.60;55.80;;;;;;6204910;28;20057;-70
2021/11/03 05:27:57;;;;;;;7.53;1.30;;;14.60;55.80;;;;;;6205148;28;20448;-70
2021/11/03 05:30:58;;;;;;;10.70;1.00;;;14.60;55.80;;;;;;6205013;28;20048;-70
2021/11/03 05:33:59;;;;;;;2.58;1.15;;;14.60;55.90;;;;;;6204153;28;20034;-70
2021/11/03 05:37:00;;;;;;;2.60;1.20;;;14.50;56.00;;;;;;6203257;28;20026;-70
2021/11/03 05:40:03;;;;;;;2.15;1.10;;;14.50;56.30;;;;;;6204789;28;20050;-69
2021/11/03 05:43:04;;;;;;;0.40;0.40;;;14.40;56.30;;;;;;6187705;28;20042;-69
2021/11/03 05:46:13;;;;;;;1.33;0.60;;;14.40;56.40;;;;;;6204787;28;20396;-69
2021/11/03 05:49:16;;;;;;;2.25;0.30;;;14.40;56.80;;;;;;6187173;28;20023;-69
2021/11/03 05:52:17;;;;;;;1.67;0.40;;;14.30;57.20;;;;;;6204690;28;20042;-69
2021/11/03 05:55:19;;;;;;;0.00;0.00;;;14.20;57.60;;;;;;6203890;28;20022;-70
2021/11/03 05:58:20;;;;;;;0.10;0.10;;;14.00;57.90;;;;;;6204602;28;20022;-70
2021/11/03 06:01:21;;;;;;;0.22;0.15;;;14.00;58.30;;;;;;6203343;28;20109;-70
2021/11/03 06:04:22;;;;;;;1.25;0.30;;;13.90;58.60;;;;;;6204490;28;20466;-71
2021/11/03 06:07:23;;;;;;;0.10;0.10;;;13.80;58.80;;;;;;6204037;28;20378;-70
2021/11/03 06:10:35;;;;;;;0.15;0.08;;;13.80;59.10;;;;;;6203354;28;20034;-70
2021/11/03 06:13:36;;;;;;;0.75;0.10;;;13.70;59.30;;;;;;6203717;28;20054;-70
2021/11/03 06:16:40;;;;;;;4.72;0.35;;;13.70;60.10;;;;;;6203327;28;20026;-70
2021/11/03 06:19:41;;;;;;;1.05;0.17;;;13.60;60.80;;;;;;6203658;28;20026;-70
2021/11/03 06:22:42;;;;;;;1.67;0.22;;;13.50;61.30;;;;;;6219322;28;20039;-70
2021/11/03 06:25:43;;;;;;;2.17;0.13;;;13.40;61.40;;;;;;6203369;28;20038;-70
2021/11/03 06:28:44;;;;;;;1.23;0.35;;;13.40;61.60;;;;;;6219182;28;20104;-70
2021/11/03 06:31:50;;;;;;;0.20;0.20;;;13.40;61.80;;;;;;6186869;28;20066;-71
2021/11/03 06:34:51;;;;;;;0.65;0.45;;;13.40;62.10;;;;;;6202771;28;20462;-70
2021/11/03 06:37:52;;;;;;;2.50;0.20;;;13.40;62.10;;;;;;6203598;28;20030;-70
2021/11/03 06:40:54;;;;;;;1.75;0.40;;;13.30;62.20;;;;;;6202244;28;20392;-70
2021/11/03 06:43:55;;;;;;;0.85;0.40;;;13.30;62.10;;;;;;6202332;28;20085;-70
2021/11/03 06:46:57;;;;;;;2.58;0.70;;;13.30;62.20;;;;;;6200601;28;20042;-70
2021/11/03 06:49:59;;;;;;;0.17;0.15;;;13.30;62.20;;;;;;6195619;28;20030;-69
2021/11/03 06:53:01;;;;;;;1.38;0.30;;;13.30;62.10;;;;;;6203387;28;20498;-69
2021/11/03 06:56:04;;;;;;;1.10;0.28;;;13.30;61.90;;;;;;6203209;28;20038;-70
2021/11/03 06:59:07;;;;;;;0.32;0.20;;;13.30;61.90;;;;;;6203335;28;20337;-71
2021/11/03 07:02:10;;;;;;;0.95;0.52;;;13.30;62.60;;;;;;6185918;28;20057;-70
2021/11/03 07:05:11;;;;;;;0.47;0.40;;;13.30;62.00;;;;;;6202984;28;20026;-70
2021/11/03 07:08:13;;;;;;;1.08;0.50;;;13.30;62.00;;;;;;6201537;28;20034;-69
2021/11/03 07:11:14;;;;;;;0.63;0.43;;;13.30;62.10;;;;;;6202651;28;20452;-69
2021/11/03 07:14:15;;;;;;;0.47;0.47;;;13.30;62.20;;;;;;6202920;28;20019;-69
2021/11/03 07:17:16;;;;;;;1.02;0.70;;;13.30;62.40;;;;;;6202721;28;20459;-71
2021/11/03 07:20:18;;;;;;;2.45;0.90;;;13.30;62.50;;;;;;6201709;28;20026;-71
2021/11/03 07:23:23;;;;;;;4.22;1.17;;;13.30;62.80;;;;;;6217783;28;20045;-70
2021/11/03 07:26:24;;;;;;;1.15;0.80;;;13.30;63.20;;;;;;6201119;28;20034;-70
2021/11/03 07:29:25;;;;;;;2.28;1.20;;;13.30;63.60;;;;;;6201456;28;20077;-69
2021/11/03 07:32:26;;;;;;;3.47;1.48;;;13.30;63.60;;;;;;6217253;28;20066;-70
2021/11/03 07:35:27;;;;;;;2.38;1.20;;;13.30;63.80;;;;;;6200788;28;20515;-70
2021/11/03 07:38:28;;;;;;;6.60;1.40;;;13.30;63.90;;;;;;6201960;28;20447;-70
2021/11/03 07:41:29;;;;;;;1.90;1.02;;;13.30;64.00;;;;;;6202017;28;20034;-70
2021/11/03 07:44:29;;;;;;;4.00;1.30;;;13.30;64.20;;;;;;6201204;28;20414;-70
2021/11/03 07:47:30;;;;;;;2.50;1.05;;;13.30;64.30;;;;;;6200381;28;20094;-71
2021/11/03 07:50:37;;;;;;;1.70;0.95;;;13.40;64.40;;;;;;6199710;28;20320;-71
2021/11/03 07:53:40;;;;;;;2.28;1.10;;;13.30;64.40;;;;;;6200301;28;20026;-70
2021/11/03 07:56:42;;;;;;;1.75;0.98;;;13.30;64.50;;;;;;6200415;28;20471;-71
2021/11/03 07:59:43;;;;;;;2.42;0.90;;;13.40;64.50;;;;;;6201371;28;20118;-70
2021/11/03 08:02:44;;;;;;;2.55;0.95;;;13.50;64.60;;;;;;6200203;28;20053;-71
2021/11/03 08:05:48;;;;;;;1.52;1.10;;;13.40;64.60;;;;;;6200015;28;20033;-70
2021/11/03 08:09:01;;;;;;;4.60;1.40;;;13.40;64.70;;;;;;6200684;28;20057;-70
2021/11/03 08:12:08;;;;;;;1.75;0.98;;;13.40;64.80;;;;;;6200219;28;20038;-70
2021/11/03 08:15:11;;;;;;;2.60;1.02;;;13.40;64.90;;;;;;6200403;28;20129;-69
2021/11/03 08:18:13;;;;;;;2.05;0.88;;;13.30;65.00;;;;;;6200339;28;20037;-71
2021/11/03 08:21:15;;;;;;;1.58;0.90;;;13.30;65.20;;;;;;6200999;28;20022;-70
2021/11/03 08:24:16;;;;;;;1.65;1.10;;;13.20;65.40;;;;;;6200177;28;20045;-70
2021/11/03 08:27:17;;;;;;;3.13;1.17;;;13.20;65.60;;;;;;6200506;28;20034;-70
2021/11/03 08:30:19;;;;;;;2.42;1.20;;;13.20;65.90;;;;;;6199384;28;20417;-71
2021/11/03 08:33:35;;;;;;;1.20;0.80;;;13.20;66.30;;;;;;6200738;28;20030;-70
2021/11/03 08:36:36;;;;;;;1.85;0.90;;;13.20;66.50;;;;;;6201032;28;20049;-69
2021/11/03 08:39:39;;;;;;;6.82;1.27;;;13.20;66.50;;;;;;6199555;28;20060;-70
2021/11/03 08:42:40;;;;;;;2.03;0.75;;;13.20;66.40;;;;;;6200205;28;20104;-70
2021/11/03 08:45:42;;;;;;;2.17;0.82;;;13.20;66.40;;;;;;6200729;28;20089;-70
2021/11/03 08:48:43;;;;;;;1.52;0.80;;;13.20;66.40;;;;;;6196283;28;20061;-71
2021/11/03 08:51:44;;;;;;;1.10;0.47;;;13.20;66.40;;;;;;6199232;28;20034;-69
2021/11/03 08:54:47;;;;;;;1.45;0.75;;;13.20;66.40;;;;;;6200218;28;20030;-69
2021/11/03 08:57:48;;;;;;;2.92;0.40;;;13.10;66.20;;;;;;6200462;28;20084;-71
2021/11/03 09:00:51;;;;;;;0.70;0.30;;;13.00;66.20;;;;;;6199511;28;20064;-70
2021/11/03 09:03:53;;;;;;;1.95;0.52;;;13.00;66.30;;;;;;6199292;28;20053;-70
2021/11/03 09:06:54;;;;;;;1.25;0.82;;;13.00;66.50;;;;;;6200215;28;20033;-70
2021/11/03 09:09:55;;;;;;;2.20;0.85;;;12.90;66.40;;;;;;6200166;28;20459;-70
2021/11/03 09:12:56;;;;;;;1.63;0.60;;;13.00;66.30;;;;;;6182895;28;20062;-70
2021/11/03 09:15:58;;;;;;;1.33;0.50;;;13.00;66.20;;;;;;6198998;28;20134;-70
2021/11/03 09:18:59;;;;;;;0.88;0.50;;;13.00;66.30;;;;;;6199740;28;20014;-70
2021/11/03 09:22:00;;;;;;;0.70;0.35;;;13.00;66.00;;;;;;6199791;28;20400;-71
2021/11/03 09:25:01;;;;;;;0.93;0.50;;;13.00;65.90;;;;;;6200589;28;20030;-71
2021/11/03 09:28:02;;;;;;;2.65;0.43;;;13.00;65.70;;;;;;6199175;28;20124;-70
2021/11/03 09:31:06;;;;;;;6.38;0.77;;;13.00;65.60;;;;;;6182838;28;20066;-71
2021/11/03 09:34:07;;;;;;;2.50;1.17;;;13.00;65.50;;;;;;6198860;28;20035;-71
2021/11/03 09:37:10;;;;;;;1.75;0.68;;;13.20;66.10;;;;;;6199870;28;20031;-71
2021/11/03 09:40:34;;;;;;;0.75;0.40;;;13.20;65.00;;;;;;6199548;28;20114;-70
2021/11/03 09:43:44;;;;;;;0.17;0.17;;;13.20;64.70;;;;;;6201924;28;20041;-70
2021/11/03 09:47:00;;;;;;;1.95;0.57;;;13.20;64.80;;;;;;6203083;28;20073;-70
2021/11/03 09:50:16;;;;;;;1.85;0.90;;;13.30;64.90;;;;;;6204038;28;20096;-71
2021/11/03 09:53:35;;;;;;;15.23;5.18;;;13.30;64.70;;;;;;6202809;28;20026;-69
2021/11/03 09:56:47;;;;;;;16.63;5.93;;;13.30;64.60;;;;;;6203659;28;20022;-72
2021/11/03 09:59:51;;;;;;;11.25;4.35;;;13.40;64.40;;;;;;6220052;28;20031;-70
2021/11/03 10:03:39;;;;;;;1.85;1.27;;;13.40;64.30;;;;;;6203337;28;20470;-70
2021/11/03 10:06:49;;;;;;;1.83;1.25;;;13.50;64.40;;;;;;6203293;28;20046;-70
2021/11/03 10:09:50;;;;;;;5.10;2.35;;;13.50;64.30;;;;;;6203580;28;20081;-69
2021/11/03 10:12:51;;;;;;;27.42;9.90;;;13.60;64.10;;;;;;6203688;28;20054;-70
2021/11/03 10:16:21;;;;;;;24.42;8.57;;;13.60;64.00;;;;;;6203596;28;20054;-69
2021/11/03 10:19:29;;;;;;;16.80;6.82;;;13.50;63.90;;;;;;6185966;28;20407;-70
2021/11/03 10:22:38;;;;;;;4.57;2.35;;;13.50;63.80;;;;;;6202468;28;20100;-70
2021/11/03 10:25:39;;;;;;;4.68;1.92;;;13.60;63.90;;;;;;6203195;28;20113;-71
2021/11/03 10:28:44;;;;;;;12.50;4.60;;;13.60;63.70;;;;;;6201134;28;20422;-70
2021/11/03 10:31:56;;;;;;;29.77;11.77;;;13.60;63.70;;;;;;6201636;28;20030;-71
2021/11/03 10:35:23;;;;;;;27.17;7.78;;;13.70;63.70;;;;;;6203591;28;20053;-70
2021/11/03 10:38:27;;;;;;;5.03;2.72;;;13.70;63.60;;;;;;6172760;28;20100;-70
2021/11/03 10:41:34;;;;;;;11.55;3.67;;;13.80;63.40;;;;;;6177215;28;20054;-71
2021/11/03 10:44:34;;;;;;;12.13;5.35;;;13.80;62.80;;;;;;6178279;28;20022;-71
2021/11/03 10:47:35;;;;;;;42.53;13.80;;;13.80;62.70;;;;;;6161671;28;20121;-71
2021/11/03 10:51:00;;;;;;;29.00;9.80;;;13.80;62.70;;;;;;6212694;28;20030;-69
2021/11/03 10:54:19;;;;;;;13.68;4.45;;;13.90;62.80;;;;;;6201350;28;20118;-70
2021/11/03 10:57:38;;;;;;;6.18;2.60;;;13.90;62.50;;;;;;6186080;28;20337;-70
2021/11/03 11:00:45;;;;;;;1.77;1.20;;;13.90;62.10;;;;;;6201051;28;20364;-70
2021/11/03 11:04:01;;;;;;;0.93;0.50;;;13.90;61.80;;;;;;6201458;28;20038;-71
2021/11/03 11:07:24;;;;;;;10.52;3.83;;;13.90;61.60;;;;;;6202480;28;20700;-70
2021/11/03 11:10:42;;;;;;;9.35;3.08;;;13.90;61.50;;;;;;6217623;28;20041;-70
2021/11/03 11:13:57;;;;;;;6.47;2.70;;;13.90;61.50;;;;;;6201466;28;20084;-70
2021/11/03 11:17:04;;;;;;;3.95;2.30;;;14.00;61.40;;;;;;6202080;28;20022;-70
2021/11/03 11:20:36;;;;;;;15.75;4.32;;;14.10;61.10;;;;;;6201890;28;20053;-69
2021/11/03 11:23:44;;;;;;;2.78;1.60;;;14.10;61.00;;;;;;6201023;28;20022;-72
2021/11/03 11:27:07;;;;;;;2.90;0.93;;;14.30;60.90;;;;;;6201739;28;20116;-71
2021/11/03 11:30:15;;;;;;;6.95;2.95;;;14.30;60.50;;;;;;6201954;28;20022;-70
2021/11/03 11:33:34;;;;;;;11.80;4.20;;;14.40;60.20;;;;;;6216619;28;20035;-71
2021/11/03 11:37:04;;;;;;;8.82;3.25;;;14.40;59.80;;;;;;6200555;28;20031;-71
2021/11/03 11:40:22;;;;;;;5.40;2.47;;;14.40;59.60;;;;;;6201361;28;20108;-70
2021/11/03 11:43:33;;;;;;;14.63;6.93;;;14.40;59.70;;;;;;6201263;28;20437;-70
2021/11/03 11:46:34;;;;;;;2.42;1.60;;;14.40;60.50;;;;;;6200891;28;20341;-71
2021/11/03 11:49:41;;;;;;;8.43;4.20;;;14.40;59.60;;;;;;6201009;28;20041;-70
2021/11/03 11:52:42;;;;;;;7.70;2.80;;;14.40;59.60;;;;;;6201213;28;20097;-70
2021/11/03 11:56:07;;;;;;;14.38;6.53;;;14.50;59.60;;;;;;6199891;28;20034;-71
2021/11/03 11:59:14;;;;;;;17.15;7.15;;;14.50;59.30;;;;;;6184130;28;20058;-70
2021/11/03 12:02:22;;;;;;;18.25;7.10;;;14.50;58.90;;;;;;6200044;28;20030;-71
2021/11/03 12:05:31;;;;;;;18.05;6.93;;;14.60;58.80;;;;;;6199973;28;20461;-69
2021/11/03 12:09:00;;;;;;;12.65;4.78;;;14.50;58.60;;;;;;6201402;28;20092;-71
2021/11/03 12:12:06;;;;;;;6.47;2.53;;;14.60;58.80;;;;;;6201113;28;20451;-70
2021/11/03 12:15:42;;;;;;;1.30;1.02;;;14.70;58.60;;;;;;6183824;28;20035;-69
2021/11/03 12:18:49;;;;;;;4.47;1.58;;;14.70;58.30;;;;;;6182772;28;20081;-71
2021/11/03 12:22:01;;;;;;;6.53;1.08;;;14.80;57.90;;;;;;6200859;28;20046;-70
2021/11/03 12:25:18;;;;;;;3.22;1.10;;;14.90;57.70;;;;;;6199316;28;20467;-70
2021/11/03 12:28:19;;;;;;;5.15;2.90;;;15.00;57.40;;;;;;6199454;28;20030;-70
2021/11/03 12:31:53;;;;;;;3.83;1.63;;;15.10;57.20;;;;;;6212683;28;20104;-70
2021/11/03 12:35:04;;;;;;;4.65;2.20;;;15.30;57.20;;;;;;6191437;28;20030;-70
2021/11/03 12:38:11;;;;;;;2.20;1.25;;;15.50;56.70;;;;;;6175508;28;20023;-70
2021/11/03 12:41:21;;;;;;;3.00;1.55;;;15.70;56.40;;;;;;6175477;28;20455;-70
2021/11/03 12:44:30;;;;;;;2.40;1.13;;;15.90;56.20;;;;;;6177789;28;20034;-70
2021/11/03 12:47:35;;;;;;;1.65;0.88;;;16.10;55.80;;;;;;6190669;28;20069;-70
2021/11/03 12:50:39;;;;;;;2.17;1.23;;;16.10;55.50;;;;;;6208958;28;20047;-70
2021/11/03 12:53:51;;;;;;;2.13;1.30;;;16.20;55.30;;;;;;6198981;28;20415;-70
2021/11/03 12:57:20;;;;;;;1.70;1.10;;;16.10;55.00;;;;;;6199929;28;20034;-70
2021/11/03 13:00:26;;;;;;;2.67;1.35;;;16.00;54.90;;;;;;6199480;28;20038;-70
2021/11/03 13:03:31;;;;;;;1.63;0.90;;;15.80;55.00;;;;;;6198829;28;20405;-71
2021/11/03 13:06:47;;;;;;;1.77;0.80;;;15.60;55.30;;;;;;6198838;28;20290;-70
2021/11/03 13:10:26;;;;;;;14.95;1.33;;;15.50;55.70;;;;;;6199596;28;20027;-70
2021/11/03 13:13:27;;;;;;;3.00;1.50;;;15.40;56.10;;;;;;6199457;28;20053;-70
2021/11/03 13:16:40;;;;;;;1.35;0.98;;;15.30;56.20;;;;;;6199972;28;20022;-70
2021/11/03 13:19:44;;;;;;;1.75;1.20;;;15.30;56.20;;;;;;6202435;28;20014;-71
2021/11/03 13:22:49;;;;;;;2.47;1.55;;;15.30;56.40;;;;;;6203183;28;20049;-70
2021/11/03 13:25:54;;;;;;;1.70;0.93;;;15.20;56.50;;;;;;6204813;28;20455;-71
2021/11/03 13:28:58;;;;;;;3.92;1.30;;;15.20;56.70;;;;;;6219918;28;20041;-71
2021/11/03 13:32:19;;;;;;;1.80;1.00;;;15.20;56.60;;;;;;6219692;28;20026;-70
2021/11/03 13:35:28;;;;;;;1.10;1.00;;;15.20;56.50;;;;;;6203400;28;20105;-70
2021/11/03 13:38:30;;;;;;;;;;;15.10;56.50;;;;;;6203672;28;20030;-70
2021/11/03 13:41:41;;;;;;;5.30;1.20;;;15.20;56.50;;;;;;6203051;28;19929;-70
2021/11/03 13:44:42;;;;;;;2.47;1.50;;;15.20;56.40;;;;;;6203736;28;20359;-71
2021/11/03 13:48:14;;;;;;;2.08;0.90;;;15.30;56.30;;;;;;6219572;28;20129;-71
2021/11/03 13:51:29;;;;;;;3.00;1.25;;;15.40;56.20;;;;;;6218635;28;20042;-70
2021/11/03 13:54:35;;;;;;;2.50;1.02;;;15.30;56.60;;;;;;6202958;28;20058;-70
2021/11/03 13:57:38;;;;;;;3.60;0.70;;;15.50;56.10;;;;;;6204103;28;20022;-70
2021/11/03 14:00:39;;;;;;;3.42;1.20;;;15.30;56.10;;;;;;6202751;28;20460;-69
2021/11/03 14:03:43;;;;;;;3.08;0.90;;;15.30;56.20;;;;;;6203804;28;20085;-70
2021/11/03 14:07:02;;;;;;;3.33;1.45;;;15.40;56.20;;;;;;6203795;28;20034;-70
2021/11/03 14:10:03;;;;;;;2.78;1.02;;;15.30;55.80;;;;;;6202328;28;20411;-70
2021/11/03 14:13:04;;;;;;;4.20;2.03;;;15.30;55.80;;;;;;6202440;28;20037;-70
2021/11/03 14:16:14;;;;;;;25.73;4.82;;;15.40;55.90;;;;;;6202490;28;20034;-70
2021/11/03 14:19:30;;;;;;;3.10;1.65;;;15.40;55.60;;;;;;6201330;28;20124;-69
2021/11/03 14:22:37;;;;;;;4.18;1.33;;;15.40;55.40;;;;;;6202535;28;20405;-69
2021/11/03 14:25:39;;;;;;;5.97;1.27;;;15.30;55.50;;;;;;6201819;28;20038;-69
2021/11/03 14:28:40;;;;;;;8.93;1.15;;;15.30;55.70;;;;;;6201912;28;20035;-70
2021/11/03 14:31:43;;;;;;;2.17;1.00;;;15.20;55.70;;;;;;6215302;28;20100;-71
2021/11/03 14:34:49;;;;;;;3.53;1.50;;;15.20;55.80;;;;;;6202907;28;20375;-69
2021/11/03 14:37:51;;;;;;;2.92;1.25;;;15.20;55.80;;;;;;6202802;28;20026;-70
2021/11/03 14:40:52;;;;;;;11.00;1.40;;;15.20;56.00;;;;;;6185180;28;20058;-70
2021/11/03 14:43:57;;;;;;;2.28;1.13;;;15.10;56.10;;;;;;6202994;28;20053;-70
2021/11/03 14:47:02;;;;;;;5.35;1.73;;;15.00;56.20;;;;;;6201734;28;20038;-70
2021/11/03 14:50:11;;;;;;;2.72;1.10;;;15.00;56.50;;;;;;6201463;28;20034;-70
2021/11/03 14:53:17;;;;;;;3.28;1.50;;;15.00;56.60;;;;;;6201629;28;20069;-70
2021/11/03 14:56:18;;;;;;;4.40;1.75;;;14.90;56.70;;;;;;6201370;28;20026;-70
2021/11/03 14:59:20;;;;;;;4.28;1.88;;;14.80;56.90;;;;;;6202264;28;20364;-70
2021/11/03 15:02:28;;;;;;;8.73;1.90;;;14.80;57.30;;;;;;6201360;28;20407;-70
2021/11/03 15:05:31;;;;;;;4.63;2.08;;;14.70;57.50;;;;;;6202370;28;20368;-71
2021/11/03 15:08:42;;;;;;;4.60;2.10;;;14.70;57.50;;;;;;6202038;28;20367;-71
2021/11/03 15:11:43;;;;;;;3.17;1.58;;;14.70;57.60;;;;;;6201557;28;20041;-71
2021/11/03 15:14:45;;;;;;;2.67;1.45;;;14.60;57.50;;;;;;6202299;28;20125;-71
2021/11/03 15:17:49;;;;;;;3.17;1.48;;;14.60;57.60;;;;;;6200887;28;20120;-71
2021/11/03 15:20:52;;;;;;;4.25;2.00;;;14.60;57.60;;;;;;6201265;28;20115;-70
2021/11/03 15:23:53;;;;;;;3.35;1.48;;;14.60;57.60;;;;;;6201819;28;20045;-70
2021/11/03 15:26:55;;;;;;;2.15;1.17;;;14.60;57.50;;;;;;6200977;28;20070;-70
2021/11/03 15:29:56;;;;;;;9.88;1.77;;;14.60;57.50;;;;;;6217095;28;20542;-70
2021/11/03 15:32:58;;;;;;;2.67;1.38;;;14.50;57.50;;;;;;6201846;28;20062;-70
2021/11/03 15:35:59;;;;;;;2.70;1.50;;;14.50;57.70;;;;;;6200631;28;20038;-70
2021/11/03 15:39:16;;;;;;;3.28;1.38;;;14.50;57.80;;;;;;6200483;28;20409;-70
2021/11/03 15:42:20;;;;;;;4.13;1.13;;;14.50;57.90;;;;;;6199471;28;20057;-70
2021/11/03 15:45:22;;;;;;;3.47;1.25;;;14.50;57.80;;;;;;6200864;28;20026;-69
2021/11/03 15:48:26;;;;;;;2.83;1.42;;;14.50;57.80;;;;;;6200824;28;20379;-70
2021/11/03 15:51:28;;;;;;;2.42;1.40;;;14.60;57.90;;;;;;6199484;28;20138;-70
2021/11/03 15:54:30;;;;;;;1.90;1.00;;;14.50;57.70;;;;;;6201213;28;20033;-70
2021/11/03 15:57:31;;;;;;;3.08;1.33;;;14.50;57.60;;;;;;6200223;28;20034;-69
2021/11/03 16:00:36;;;;;;;1.63;1.10;;;14.40;57.60;;;;;;6201046;28;20042;-69
2021/11/03 16:03:49;;;;;;;1.73;1.05;;;14.40;57.80;;;;;;6216504;28;20069;-69